createdAt,value
2018-05-03T00:01:28.229Z,99057
2018-05-03T00:03:56.372Z,99087
2018-05-03T00:06:24.469Z,99105
2018-05-03T00:08:53.355Z,99090
2018-05-03T00:11:21.477Z,99072
2018-05-03T00:13:49.582Z,99098
2018-05-03T00:16:17.729Z,99115
2018-05-03T00:18:45.833Z,99090
2018-05-03T00:21:13.946Z,99066
2018-05-03T00:23:42.840Z,99073
2018-05-03T00:26:11.711Z,99082
2018-05-03T00:28:39.841Z,99103
2018-05-03T00:31:07.948Z,99083
2018-05-03T00:33:36.057Z,99070
2018-05-03T00:36:04.202Z,99073
2018-05-03T00:38:32.300Z,99092
2018-05-03T00:41:00.408Z,99086
2018-05-03T00:43:29.287Z,99072
2018-05-03T00:45:57.397Z,99073
2018-05-03T00:48:25.533Z,99078
2018-05-03T00:50:53.640Z,99092
2018-05-03T00:53:22.506Z,99085
2018-05-03T00:55:50.643Z,99093
2018-05-03T00:58:18.740Z,99090
2018-05-03T01:00:46.844Z,99092
2018-05-03T01:03:15.725Z,99078
2018-05-03T01:05:43.835Z,99085
2018-05-03T01:08:12.734Z,99085
2018-05-03T01:10:40.834Z,99095
2018-05-03T01:13:08.933Z,99097
2018-05-03T01:15:37.218Z,99115
2018-05-03T01:18:05.332Z,99108
2018-05-03T01:20:34.231Z,99105
2018-05-03T01:23:03.101Z,99097
2018-05-03T01:25:31.210Z,99085
2018-05-03T01:27:59.328Z,99078
2018-05-03T01:30:27.432Z,99069
2018-05-03T01:32:55.554Z,99077
2018-05-03T01:35:41.483Z,99074
2018-05-03T01:38:09.607Z,99082
2018-05-03T01:40:37.718Z,99107
2018-05-03T01:43:05.850Z,99124
2018-05-03T01:45:33.973Z,99133
2018-05-03T01:48:02.071Z,99144
2018-05-03T01:50:30.201Z,99159
2018-05-03T01:52:58.303Z,99169
2018-05-03T01:55:26.424Z,99183
2018-05-03T01:57:55.297Z,99188
2018-05-03T02:00:23.399Z,99181
2018-05-03T02:02:52.289Z,99166
2018-05-03T02:05:21.165Z,99154
2018-05-03T02:07:49.262Z,99149
2018-05-03T02:10:18.148Z,99161
2018-05-03T02:12:46.260Z,99172
2018-05-03T02:15:14.378Z,99166
2018-05-03T02:17:42.473Z,99166
2018-05-03T02:20:10.614Z,99171
2018-05-03T02:22:38.728Z,99177
2018-05-03T02:25:06.831Z,99180
2018-05-03T02:27:35.729Z,99182
2018-05-03T02:30:04.614Z,99183
2018-05-03T02:32:33.499Z,99175
2018-05-03T02:35:02.405Z,99163
2018-05-03T02:37:31.282Z,99151
2018-05-03T02:39:59.429Z,99152
2018-05-03T02:42:27.542Z,99154
2018-05-03T02:44:55.647Z,99161
2018-05-03T02:47:23.781Z,99156
2018-05-03T02:49:52.013Z,99141
2018-05-03T02:52:20.114Z,99132
2018-05-03T02:54:48.256Z,99133
2018-05-03T02:57:34.230Z,99137
2018-05-03T03:00:26.664Z,99142
2018-05-03T03:03:19.186Z,99141
2018-05-03T03:09:29.302Z,99106
2018-05-03T03:12:20.945Z,99108
2018-05-03T03:15:13.261Z,99101
2018-05-03T03:18:04.792Z,99112
2018-05-03T03:21:07.001Z,99111
2018-05-03T03:23:58.634Z,99125
2018-05-03T03:30:07.157Z,99143
2018-05-03T03:36:11.084Z,99116
2018-05-03T03:38:57.028Z,99107
2018-05-03T03:41:40.504Z,99120
2018-05-03T03:44:26.373Z,99126
2018-05-03T03:46:54.474Z,99138
2018-05-03T03:49:22.613Z,99137
2018-05-03T03:51:50.716Z,99144
2018-05-03T03:54:18.820Z,99149
2018-05-03T03:56:46.935Z,99138
2018-05-03T03:59:15.814Z,99147
2018-05-03T04:01:44.714Z,99153
2018-05-03T04:04:13.599Z,99157
2018-05-03T04:06:41.742Z,99148
2018-05-03T04:09:09.870Z,99138
2018-05-03T04:11:38.747Z,99124
2018-05-03T04:14:06.902Z,99110
2018-05-03T04:16:35.023Z,99096
2018-05-03T04:19:21.713Z,99078
2018-05-03T04:22:08.480Z,99064
2018-05-03T04:24:54.612Z,99058
2018-05-03T04:27:23.504Z,99063
2018-05-03T04:29:52.381Z,99064
2018-05-03T04:32:20.491Z,99071
2018-05-03T04:34:48.593Z,99088
2018-05-03T04:37:16.731Z,99097
2018-05-03T04:39:45.626Z,99101
2018-05-03T04:42:14.494Z,99106
2018-05-03T04:44:42.601Z,99121
2018-05-03T04:47:11.480Z,99116
2018-05-03T04:49:39.626Z,99128
2018-05-03T04:52:07.746Z,99130
2018-05-03T04:54:36.616Z,99127
2018-05-03T04:57:04.751Z,99126
2018-05-03T04:59:32.861Z,99133
2018-05-03T05:02:00.969Z,99129
2018-05-03T05:04:29.849Z,99130
2018-05-03T05:06:58.721Z,99141
2018-05-03T05:09:26.883Z,99147
2018-05-03T05:11:55.005Z,99141
2018-05-03T05:14:23.103Z,99155
2018-05-03T05:16:52.012Z,99169
2018-05-03T05:19:20.120Z,99169
2018-05-03T05:21:48.220Z,99179
2018-05-03T05:24:16.385Z,99190
2018-05-03T05:26:44.490Z,99206
2018-05-03T05:29:13.401Z,99208
2018-05-03T05:31:42.265Z,99211
2018-05-03T05:34:10.372Z,99218
2018-05-03T05:36:38.488Z,99215
2018-05-03T05:39:06.589Z,99213
2018-05-03T05:41:34.724Z,99227
2018-05-03T05:44:02.845Z,99228
2018-05-03T05:46:30.948Z,99239
2018-05-03T05:48:59.822Z,99232
2018-05-03T05:51:27.930Z,99233
2018-05-03T05:53:56.829Z,99224
2018-05-03T05:56:24.934Z,99232
2018-05-03T05:58:53.039Z,99242
2018-05-03T06:01:21.177Z,99254
2018-05-03T06:03:49.285Z,99270
2018-05-03T06:06:17.384Z,99271
2018-05-03T06:08:45.517Z,99280
2018-05-03T06:11:13.627Z,99287
2018-05-03T06:13:43.244Z,99290
2018-05-03T06:16:12.893Z,99294
2018-05-03T06:18:41.001Z,99291
2018-05-03T06:21:09.141Z,99291
2018-05-03T06:23:38.016Z,99307
2018-05-03T06:26:06.945Z,99317
2018-05-03T06:28:35.840Z,99318
2018-05-03T06:31:03.947Z,99320
2018-05-03T06:33:32.076Z,99326
2018-05-03T06:36:00.944Z,99321
2018-05-03T06:38:29.078Z,99322
2018-05-03T06:40:57.188Z,99326
2018-05-03T06:43:25.318Z,99326
2018-05-03T06:45:53.460Z,99326
2018-05-03T06:48:21.560Z,99335
2018-05-03T06:50:50.436Z,99332
2018-05-03T06:53:19.346Z,99332
2018-05-03T06:55:48.210Z,99338
2018-05-03T06:58:17.841Z,99334
2018-05-03T07:00:46.731Z,99338
2018-05-03T07:03:14.867Z,99342
2018-05-03T07:05:42.978Z,99337
2018-05-03T07:08:11.083Z,99339
2018-05-03T07:10:39.202Z,99342
2018-05-03T07:13:07.306Z,99346
2018-05-03T07:15:35.421Z,99345
2018-05-03T07:18:03.525Z,99354
2018-05-03T07:20:31.661Z,99365
2018-05-03T07:23:00.536Z,99369
2018-05-03T07:25:28.711Z,99369
2018-05-03T07:27:56.882Z,99353
2018-05-03T07:30:24.972Z,99365
2018-05-03T07:32:53.214Z,99365
2018-05-03T07:35:21.253Z,99370
2018-05-03T07:37:50.124Z,99373
2018-05-03T07:40:18.259Z,99362
2018-05-03T07:42:46.366Z,99384
2018-05-03T07:45:14.545Z,99380
2018-05-03T07:47:42.687Z,99380
2018-05-03T07:50:10.821Z,99384
2018-05-03T07:52:39.693Z,99389
2018-05-03T07:55:07.811Z,99382
2018-05-03T07:57:35.998Z,99385
2018-05-03T08:00:04.128Z,99390
2018-05-03T08:02:32.237Z,99402
2018-05-03T08:05:01.109Z,99400
2018-05-03T08:07:29.249Z,99401
2018-05-03T08:09:58.215Z,99413
2018-05-03T08:12:26.319Z,99410
2018-05-03T08:14:54.457Z,99425
2018-05-03T08:17:23.325Z,99426
2018-05-03T08:19:51.434Z,99424
2018-05-03T08:22:20.431Z,99429
2018-05-03T08:24:48.481Z,99424
2018-05-03T08:27:17.354Z,99436
2018-05-03T08:29:45.514Z,99431
2018-05-03T08:32:13.615Z,99439
2018-05-03T08:34:41.718Z,99442
2018-05-03T08:37:10.618Z,99445
2018-05-03T08:39:39.489Z,99452
2018-05-03T08:42:07.585Z,99454
2018-05-03T08:44:36.468Z,99452
2018-05-03T08:47:05.335Z,99454
2018-05-03T08:49:33.481Z,99455
2018-05-03T08:52:01.596Z,99458
2018-05-03T08:54:29.695Z,99465
2018-05-03T08:56:58.573Z,99466
2018-05-03T08:59:26.673Z,99464
2018-05-03T09:01:55.670Z,99473
2018-05-03T09:04:23.776Z,99459
2018-05-03T09:06:51.872Z,99470
2018-05-03T09:09:20.024Z,99482
2018-05-03T09:11:48.145Z,99482
2018-05-03T09:14:16.259Z,99490
2018-05-03T09:16:45.142Z,99486
2018-05-03T09:19:13.266Z,99494
2018-05-03T09:21:41.392Z,99501
2018-05-03T09:24:09.529Z,99501
2018-05-03T09:26:37.646Z,99503
2018-05-03T09:29:05.749Z,99507
2018-05-03T09:31:34.622Z,99500
2018-05-03T09:34:02.748Z,99505
2018-05-03T09:36:30.876Z,99512
2018-05-03T09:38:58.999Z,99512
2018-05-03T09:41:27.104Z,99510
2018-05-03T09:43:55.204Z,99495
2018-05-03T09:46:23.329Z,99505
2018-05-03T09:48:51.433Z,99520
2018-05-03T09:51:19.569Z,99525
2018-05-03T09:53:47.693Z,99525
2018-05-03T09:56:15.833Z,99521
2018-05-03T09:58:43.934Z,99530
2018-05-03T10:01:12.045Z,99527
2018-05-03T10:03:40.165Z,99533
2018-05-03T10:06:08.288Z,99531
2018-05-03T10:08:36.402Z,99539
2018-05-03T10:11:05.291Z,99540
2018-05-03T10:13:34.191Z,99537
2018-05-03T10:16:03.069Z,99532
2018-05-03T10:18:31.954Z,99545
2018-05-03T10:21:00.859Z,99542
2018-05-03T10:23:28.965Z,99548
2018-05-03T10:25:57.078Z,99552
2018-05-03T10:28:25.206Z,99540
2018-05-03T10:30:54.080Z,99544
2018-05-03T10:33:22.196Z,99549
2018-05-03T10:35:50.355Z,99550
2018-05-03T10:38:18.420Z,99554
2018-05-03T10:40:47.318Z,99549
2018-05-03T10:43:16.188Z,99549
2018-05-03T10:45:44.308Z,99545
2018-05-03T10:48:12.425Z,99543
2018-05-03T10:50:40.540Z,99546
2018-05-03T10:53:09.436Z,99540
2018-05-03T10:55:38.307Z,99541
2018-05-03T10:58:07.935Z,99537
2018-05-03T11:00:36.806Z,99538
2018-05-03T11:03:04.921Z,99531
2018-05-03T11:05:33.893Z,99534
2018-05-03T11:08:02.713Z,99534
2018-05-03T11:10:31.598Z,99535
2018-05-03T11:13:00.473Z,99535
2018-05-03T11:15:28.574Z,99529
2018-05-03T11:17:57.452Z,99533
2018-05-03T11:20:25.554Z,99524
2018-05-03T11:22:54.481Z,99528
2018-05-03T11:25:22.622Z,99529
2018-05-03T11:27:51.607Z,99525
2018-05-03T11:30:20.474Z,99525
2018-05-03T11:32:48.585Z,99523
2018-05-03T11:35:17.456Z,99532
2018-05-03T11:37:45.570Z,99527
2018-05-03T11:40:13.678Z,99528
2018-05-03T11:42:41.844Z,99529
2018-05-03T11:45:09.954Z,99521
2018-05-03T11:47:38.075Z,99516
2018-05-03T11:50:06.952Z,99514
2018-05-03T11:52:35.837Z,99524
2018-05-03T11:55:03.956Z,99523
2018-05-03T11:57:32.095Z,99502
2018-05-03T12:00:00.254Z,99526
2018-05-03T12:02:28.399Z,99536
2018-05-03T12:04:56.504Z,99526
2018-05-03T12:07:25.381Z,99523
2018-05-03T12:09:53.505Z,99518
2018-05-03T12:12:22.396Z,99526
2018-05-03T12:14:50.497Z,99530
2018-05-03T12:17:18.643Z,99531
2018-05-03T12:19:46.771Z,99535
2018-05-03T12:22:14.890Z,99525
2018-05-03T12:24:42.999Z,99547
2018-05-03T12:27:11.878Z,99540
2018-05-03T12:29:39.990Z,99547
2018-05-03T12:32:08.115Z,99532
2018-05-03T12:34:36.221Z,99537
2018-05-03T12:37:05.081Z,99534
2018-05-03T12:39:33.195Z,99527
2018-05-03T12:42:02.563Z,99545
2018-05-03T12:44:30.701Z,99535
2018-05-03T12:46:58.801Z,99526
2018-05-03T12:49:26.932Z,99530
2018-05-03T12:51:55.806Z,99528
2018-05-03T12:54:23.943Z,99543
2018-05-03T12:56:52.059Z,99539
2018-05-03T12:59:20.193Z,99530
2018-05-03T13:01:48.306Z,99530
2018-05-03T13:04:16.426Z,99538
2018-05-03T13:06:44.537Z,99534
2018-05-03T13:09:12.650Z,99540
2018-05-03T13:11:41.513Z,99546
2018-05-03T13:14:09.638Z,99550
2018-05-03T13:16:38.516Z,99544
2018-05-03T13:19:06.641Z,99537
2018-05-03T13:21:34.752Z,99531
2018-05-03T13:24:02.898Z,99536
2018-05-03T13:26:31.010Z,99537
2018-05-03T13:28:59.128Z,99545
2018-05-03T13:31:27.229Z,99540
2018-05-03T13:33:55.354Z,99542
2018-05-03T13:36:23.464Z,99541
2018-05-03T13:38:51.586Z,99547
2018-05-03T13:41:19.724Z,99538
2018-05-03T13:43:48.594Z,99535
2018-05-03T13:46:17.474Z,99541
2018-05-03T13:48:45.612Z,99540
2018-05-03T13:51:13.727Z,99543
2018-05-03T13:53:41.835Z,99543
2018-05-03T13:56:10.008Z,99544
2018-05-03T13:58:38.879Z,99541
2018-05-03T14:01:06.996Z,99552
2018-05-03T14:03:35.116Z,99543
2018-05-03T14:06:03.248Z,99547
2018-05-03T14:08:31.353Z,99545
2018-05-03T14:10:59.469Z,99548
2018-05-03T14:13:27.592Z,99548
2018-05-03T14:15:55.706Z,99543
2018-05-03T14:18:23.808Z,99551
2018-05-03T14:20:52.714Z,99555
2018-05-03T14:23:21.638Z,99551
2018-05-03T14:25:49.765Z,99552
2018-05-03T14:28:17.884Z,99565
2018-05-03T14:30:46.000Z,99557
2018-05-03T14:33:14.101Z,99566
2018-05-03T14:35:42.223Z,99560
2018-05-03T14:38:10.354Z,99567
2018-05-03T14:40:38.933Z,99568
2018-05-03T14:43:07.030Z,99565
2018-05-03T14:45:35.914Z,99563
2018-05-03T14:48:04.932Z,99563
2018-05-03T14:50:33.813Z,99561
2018-05-03T14:53:02.703Z,99566
2018-05-03T14:55:31.601Z,99569
2018-05-03T14:58:00.490Z,99561
2018-05-03T15:00:28.613Z,99564
2018-05-03T15:02:56.736Z,99565
2018-05-03T15:05:24.854Z,99568
2018-05-03T15:07:52.966Z,99563
2018-05-03T15:10:21.084Z,99565
2018-05-03T15:12:49.973Z,99554
2018-05-03T15:15:18.880Z,99561
2018-05-03T15:17:47.758Z,99561
2018-05-03T15:20:16.661Z,99562
2018-05-03T15:22:45.544Z,99554
2018-05-03T15:25:13.674Z,99563
2018-05-03T15:27:41.777Z,99562
2018-05-03T15:30:09.878Z,99551
2018-05-03T15:32:38.008Z,99555
2018-05-03T15:35:06.136Z,99566
2018-05-03T15:37:35.040Z,99561
2018-05-03T15:40:03.927Z,99557
2018-05-03T15:42:32.812Z,99555
2018-05-03T15:45:00.924Z,99567
2018-05-03T15:47:29.043Z,99566
2018-05-03T15:49:57.253Z,99562
2018-05-03T15:52:25.310Z,99568
2018-05-03T15:54:53.412Z,99571
2018-05-03T15:57:22.303Z,99568
2018-05-03T15:59:51.179Z,99565
2018-05-03T16:02:19.290Z,99564
2018-05-03T16:04:48.178Z,99569
2018-05-03T16:07:17.068Z,99568
2018-05-03T16:09:45.957Z,99569
2018-05-03T16:12:14.073Z,99566
2018-05-03T16:14:42.173Z,99576
2018-05-03T16:17:10.293Z,99572
2018-05-03T16:19:39.168Z,99583
2018-05-03T16:22:07.330Z,99585
2018-05-03T16:24:35.460Z,99588
2018-05-03T16:27:03.636Z,99591
2018-05-03T16:29:31.950Z,99579
2018-05-03T16:32:00.091Z,99589
2018-05-03T16:34:29.000Z,99586
2018-05-03T16:36:57.883Z,99599
2018-05-03T16:39:26.778Z,99593
2018-05-03T16:41:54.957Z,99600
2018-05-03T16:44:23.086Z,99593
2018-05-03T16:46:51.291Z,99603
2018-05-03T16:49:19.321Z,99596
2018-05-03T16:51:47.445Z,99604
2018-05-03T16:54:15.561Z,99608
2018-05-03T16:56:43.707Z,99610
2018-05-03T16:59:12.628Z,99601
2018-05-03T17:01:40.697Z,99603
2018-05-03T17:04:08.885Z,99610
2018-05-03T17:06:37.019Z,99609
2018-05-03T17:09:05.146Z,99588
2018-05-03T17:11:33.263Z,99609
2018-05-03T17:14:01.397Z,99604
2018-05-03T17:16:29.531Z,99611
2018-05-03T17:18:57.674Z,99619
2018-05-03T17:21:25.845Z,99615
2018-05-03T17:23:53.984Z,99622
2018-05-03T17:26:22.873Z,99630
2018-05-03T17:28:51.779Z,99629
2018-05-03T17:31:20.731Z,99635
2018-05-03T17:33:48.879Z,99647
2018-05-03T17:36:17.720Z,99646
2018-05-03T17:38:45.849Z,99649
2018-05-03T17:41:13.964Z,99659
2018-05-03T17:43:42.080Z,99662
2018-05-03T17:46:10.980Z,99664
2018-05-03T17:48:39.099Z,99656
2018-05-03T17:51:07.234Z,99663
2018-05-03T17:53:36.247Z,99669
2018-05-03T17:56:04.345Z,99669
2018-05-03T17:58:32.478Z,99668
2018-05-03T18:01:01.392Z,99674
2018-05-03T18:03:29.524Z,99682
2018-05-03T18:05:57.636Z,99681
2018-05-03T18:08:25.758Z,99683
2018-05-03T18:10:53.901Z,99685
2018-05-03T18:13:22.009Z,99698
2018-05-03T18:15:50.884Z,99697
2018-05-03T18:18:19.000Z,99704
2018-05-03T18:20:47.118Z,99701
2018-05-03T18:23:15.237Z,99710
2018-05-03T18:25:43.356Z,99716
2018-05-03T18:28:12.312Z,99719
2018-05-03T18:30:40.437Z,99721
2018-05-03T18:33:09.406Z,99723
2018-05-03T18:35:37.530Z,99725
2018-05-03T18:38:05.677Z,99727
2018-05-03T18:40:33.809Z,99723
2018-05-03T18:43:01.911Z,99731
2018-05-03T18:45:30.024Z,99744
2018-05-03T18:47:58.901Z,99752
2018-05-03T18:50:27.017Z,99746
2018-05-03T18:52:55.125Z,99759
2018-05-03T18:55:23.238Z,99758
2018-05-03T18:57:52.115Z,99759
2018-05-03T19:00:20.233Z,99782
2018-05-03T19:02:48.351Z,99772
2018-05-03T19:05:17.259Z,99780
2018-05-03T19:07:45.363Z,99780
2018-05-03T19:10:14.263Z,99788
2018-05-03T19:12:43.141Z,99796
2018-05-03T19:15:11.260Z,99789
2018-05-03T19:17:39.370Z,99789
2018-05-03T19:20:07.486Z,99793
2018-05-03T19:22:35.626Z,99795
2018-05-03T19:25:03.743Z,99803
2018-05-03T19:27:32.625Z,99801
2018-05-03T19:30:01.512Z,99804
2018-05-03T19:32:29.626Z,99805
2018-05-03T19:34:58.632Z,99799
2018-05-03T19:37:26.740Z,99800
2018-05-03T19:39:54.874Z,99804
2018-05-03T19:42:23.031Z,99818
2018-05-03T19:44:51.920Z,99823
2018-05-03T19:47:20.798Z,99822
2018-05-03T19:49:49.675Z,99828
2018-05-03T19:52:17.806Z,99836
2018-05-03T19:54:45.921Z,99839
2018-05-03T19:57:14.046Z,99848
2018-05-03T19:59:42.925Z,99845
2018-05-03T20:02:11.029Z,99852
2018-05-03T20:04:39.923Z,99856
2018-05-03T20:07:08.814Z,99858
2018-05-03T20:09:37.687Z,99865
2018-05-03T20:12:05.804Z,99869
2018-05-03T20:14:33.910Z,99860
2018-05-03T20:17:02.045Z,99862
2018-05-03T20:19:30.931Z,99870
2018-05-03T20:21:59.818Z,99876
2018-05-03T20:24:28.698Z,99870
2018-05-03T20:26:56.813Z,99877
2018-05-03T20:29:25.708Z,99877
2018-05-03T20:31:53.812Z,99883
2018-05-03T20:34:21.928Z,99878
2018-05-03T20:36:50.059Z,99882
2018-05-03T20:39:18.170Z,99881
2018-05-03T20:41:47.837Z,99873
2018-05-03T20:44:15.953Z,99887
2018-05-03T20:46:44.089Z,99882
2018-05-03T20:49:12.203Z,99895
2018-05-03T20:51:40.335Z,99890
2018-05-03T20:54:08.442Z,99887
2018-05-03T20:56:36.600Z,99892
2018-05-03T20:59:04.681Z,99894
2018-05-03T21:01:32.789Z,99899
2018-05-03T21:04:00.915Z,99891
2018-05-03T21:06:29.782Z,99901
2018-05-03T21:08:57.885Z,99901
2018-05-03T21:11:26.764Z,99901
2018-05-03T21:13:54.907Z,99918
2018-05-03T21:16:23.021Z,99909
2018-05-03T21:18:51.903Z,99923
2018-05-03T21:21:20.025Z,99926
2018-05-03T21:23:48.141Z,99930
2018-05-03T21:26:16.360Z,99926
2018-05-03T21:28:44.393Z,99936
2018-05-03T21:31:12.531Z,99949
2018-05-03T21:33:40.640Z,99942
2018-05-03T21:36:08.759Z,99945
2018-05-03T21:38:37.634Z,99964
2018-05-03T21:41:05.743Z,99972
2018-05-03T21:43:34.621Z,99976
2018-05-03T21:46:03.489Z,99976
2018-05-03T21:48:31.605Z,99979
2018-05-03T21:51:00.476Z,99994
2018-05-03T21:53:28.590Z,99998
2018-05-03T21:55:56.982Z,99977
2018-05-03T21:58:25.104Z,99989
2018-05-03T22:00:53.201Z,99994
2018-05-03T22:03:22.093Z,99994
2018-05-03T22:05:50.206Z,100002
2018-05-03T22:08:18.321Z,99998
2018-05-03T22:10:46.435Z,99982
2018-05-03T22:13:15.313Z,100003
2018-05-03T22:15:43.456Z,100002
2018-05-03T22:18:11.690Z,100004
2018-05-03T22:20:40.562Z,100010
2018-05-03T22:23:08.697Z,100022
2018-05-03T22:25:36.824Z,100015
2018-05-03T22:28:05.039Z,100014
2018-05-03T22:30:33.160Z,100013
2018-05-03T22:33:01.280Z,100024
2018-05-03T22:35:30.144Z,100020
2018-05-03T22:37:58.269Z,100025
2018-05-03T22:40:26.381Z,100029
2018-05-03T22:42:54.491Z,100026
2018-05-03T22:45:23.386Z,100034
2018-05-03T22:47:52.270Z,100040
2018-05-03T22:50:20.393Z,100039
2018-05-03T22:52:48.506Z,100042
2018-05-03T22:55:16.629Z,100053
2018-05-03T22:57:44.733Z,100044
2018-05-03T23:00:13.729Z,100061
2018-05-03T23:02:41.830Z,100067
2018-05-03T23:05:09.949Z,100063
2018-05-03T23:07:38.834Z,100066
2018-05-03T23:10:07.708Z,100062
2018-05-03T23:12:35.840Z,100055
2018-05-03T23:15:03.946Z,100056
2018-05-03T23:17:32.102Z,100061
2018-05-03T23:20:00.236Z,100051
2018-05-03T23:22:32.896Z,100059
2018-05-03T23:25:01.014Z,100069
2018-05-03T23:27:29.136Z,100058
2018-05-03T23:29:57.266Z,100061
2018-05-03T23:32:26.143Z,100064
2018-05-03T23:34:55.031Z,100068
2018-05-03T23:37:23.153Z,100076
2018-05-03T23:39:51.282Z,100074
2018-05-03T23:42:19.400Z,100084
2018-05-03T23:44:47.520Z,100084
2018-05-03T23:47:15.633Z,100086
2018-05-03T23:49:44.518Z,100097
2018-05-03T23:52:13.401Z,100103
2018-05-03T23:54:41.504Z,100083
2018-05-03T23:57:10.382Z,100090
2018-05-03T23:59:38.490Z,100098
